Capannori, Italy

5:36 AM CEST on October 25, 2014 (GMT +0200)
ITOSCANA135 | Change Station
CLOSE
Current Station
Personal Weather Station
Location: Lucca, TOSCANA
Elevation: 95 ft
Nearby Weather Stations

Elev 95 ft 43.89 °N, 10.52 °E | Updated 2 minutes ago

Clear
Clear
51.6 °F
Feels Like 51.6 °F
N
6.0
Wind Variable Wind from North
Gusts 7.6 mph

Today
High -- | Low -- °F
--% Chance of Precip.
Yesterday
High -- | Low -- °F
Precip. -- in
7:44 AM 6:18 PM
New Moon, 2% visible
Pressure 30.04 in
Visibility -9999.0 miles
Clouds
Dew Point 46 °F
Humidity 80%
Rainfall 0.00 in
Snow Depth Not available.
UV Not available.
Pollen Not available.
Air Quality Not available.
Flu Activity Not available.
METAR LIRQ 250320Z 23004KT 200V290 CAVOK 09/07 Q1017

More Conditions Fewer Conditions

Pressure 30.04 in
Visibility -9999.0 miles
Clouds
Dew Point 46 °F
Humidity 80%
Rainfall 0.00 in
Snow Depth Not available.
UV Not available.
Pollen Not available.
Air Quality Not available.
Flu Activity Not available.
METAR LIRQ 250320Z 23004KT 200V290 CAVOK 09/07 Q1017

More Conditions Fewer Conditions

10-Day Weather Forecast

Almanac

Astronomy

Oct. 25, 2014 Rise Set
Actual Time 7:44 AM CEST 6:18 PM CEST
Civil Twilight 7:14 AM CEST 6:47 PM CEST
Nautical Twilight 6:41 AM CEST 7:21 PM CEST
Astronomical Twilight 6:07 AM CEST 7:54 PM CEST
Moon 9:08 AM CEST 7:26 PM CEST
Length of Visible Light 11h 33m
Length of Day
10h 34m
Tomorrow will be 2m 48s shorter.
New Moon, 2% of the Moon is Illuminated
Oct 24
New Moon
Oct 30
First Quarter
Nov 6
Full
Nov 14
Last Quarter
Nov 22
New

Yesterday's Extremes

Country Highs Country Lows

Community

WunderPhotos

Upload Photos

1,764,771 photos uploaded!

Nearby

Snow Depth

Not available.

Earthquake Activity

City Distance Mag. Time & Date
No recent earthquake activity has been reported nearby.
Minimum magnitude displayed is 2.5.

Coastal Water Temperatures

Place Temperature
No Stations Reporting

Nearby Weather Stations